Time;durP1;ratioP1;P1;durP2;ratioP2;P2;SDS_P1;SDS_P2;PMS_P1;PMS_P2;Temp;Humidity;BMP_temperature;BMP_pressure;BME280_temperature;BME280_humidity;BME280_pressure;Samples;Min_cycle;Max_cycle;Signal;HPM_P1;HPM_P2
2023/05/24 00:01:27;;;;;;;4.90;1.47;;;9.30;99.90;;;;;;5052199;28;20033;-50
2023/05/24 00:03:57;;;;;;;5.80;1.07;;;9.20;99.90;;;;;;5053712;28;20021;-49
2023/05/24 00:06:25;;;;;;;6.20;1.40;;;9.20;99.90;;;;;;5053855;28;20036;-50
2023/05/24 00:08:51;;;;;;;6.23;1.30;;;9.20;99.90;;;;;;5053772;28;20104;-50
2023/05/24 00:11:17;;;;;;;6.67;1.30;;;9.10;99.90;;;;;;5053623;28;20037;-49
2023/05/24 00:13:43;;;;;;;3.00;1.10;;;9.10;99.90;;;;;;5053626;28;20383;-49
2023/05/24 00:16:09;;;;;;;8.50;1.33;;;9.10;99.90;;;;;;5053679;28;20036;-49
2023/05/24 00:18:39;;;;;;;8.77;1.30;;;9.10;99.90;;;;;;5053578;28;20539;-49
2023/05/24 00:21:09;;;;;;;2.93;1.37;;;9.10;99.90;;;;;;5053197;28;20048;-49
2023/05/24 00:23:36;;;;;;;4.80;1.20;;;9.00;99.90;;;;;;5053467;28;20029;-49
2023/05/24 00:26:02;;;;;;;3.03;1.20;;;9.00;99.90;;;;;;5053473;28;20053;-49
2023/05/24 00:28:28;;;;;;;2.57;1.00;;;8.90;99.90;;;;;;5053639;28;20031;-49
2023/05/24 00:30:54;;;;;;;4.50;1.43;;;8.90;99.90;;;;;;5051873;28;20032;-49
2023/05/24 00:33:22;;;;;;;3.00;0.97;;;8.90;99.90;;;;;;5053206;28;20036;-50
2023/05/24 00:35:48;;;;;;;6.07;1.30;;;8.90;99.90;;;;;;5053183;28;20052;-49
2023/05/24 00:38:14;;;;;;;3.57;1.23;;;8.90;99.90;;;;;;5051862;28;20044;-49
2023/05/24 00:40:40;;;;;;;7.67;1.70;;;8.90;99.90;;;;;;5052028;28;20037;-48
2023/05/24 00:43:06;;;;;;;6.57;1.60;;;8.80;99.90;;;;;;5052855;28;20031;-48
2023/05/24 00:45:31;;;;;;;4.57;1.07;;;8.90;99.90;;;;;;5051884;28;20060;-48
2023/05/24 00:47:57;;;;;;;2.97;0.80;;;8.80;99.90;;;;;;5053057;28;20063;-49
2023/05/24 00:50:24;;;;;;;4.43;1.30;;;8.80;99.90;;;;;;5051447;28;20087;-48
2023/05/24 00:52:50;;;;;;;5.43;1.33;;;8.80;99.90;;;;;;5051591;28;20029;-49
2023/05/24 00:55:17;;;;;;;4.00;1.33;;;8.80;99.90;;;;;;5052740;28;20039;-48
2023/05/24 00:57:43;;;;;;;5.03;1.17;;;8.70;99.90;;;;;;5051938;28;20037;-48
2023/05/24 01:00:10;;;;;;;5.80;1.63;;;8.70;99.90;;;;;;5051532;28;20033;-47
2023/05/24 01:02:36;;;;;;;6.10;1.30;;;8.70;99.90;;;;;;5052690;28;20029;-50
2023/05/24 01:05:04;;;;;;;6.93;1.40;;;8.60;99.90;;;;;;5053106;28;20028;-48
2023/05/24 01:07:49;;;;;;;3.93;1.10;;;8.50;99.90;;;;;;5051376;28;20032;-49
2023/05/24 01:10:33;;;;;;;6.07;1.27;;;8.50;99.90;;;;;;5052508;28;20112;-49
2023/05/24 01:13:22;;;;;;;6.83;1.23;;;8.40;99.90;;;;;;5052696;28;20032;-47
2023/05/24 01:16:16;;;;;;;4.88;1.50;;;8.30;99.90;;;;;;5052654;28;20033;-47
2023/05/24 01:18:47;;;;;;;6.10;2.10;;;8.10;99.90;;;;;;5052673;28;20056;-49
2023/05/24 01:21:13;;;;;;;3.27;1.40;;;8.10;99.90;;;;;;5052460;28;20159;-49
2023/05/24 01:24:13;;;;;;;2.83;1.00;;;8.10;99.90;;;;;;5052415;28;20033;-50
2023/05/24 01:27:06;;;;;;;5.53;1.30;;;8.10;99.90;;;;;;5052746;28;20359;-47
2023/05/24 01:29:35;;;;;;;3.43;1.03;;;8.00;99.90;;;;;;5052539;28;20025;-48
2023/05/24 01:32:02;;;;;;;9.07;1.77;;;8.00;99.90;;;;;;5052075;28;20021;-48
2023/05/24 01:34:27;;;;;;;5.73;2.13;;;8.00;99.90;;;;;;5052075;28;20032;-48
2023/05/24 01:36:53;;;;;;;7.40;1.47;;;7.90;99.90;;;;;;5050947;28;20120;-48
2023/05/24 01:39:20;;;;;;;4.57;1.03;;;7.90;99.90;;;;;;5052230;28;20033;-49
2023/05/24 01:42:08;;;;;;;7.53;1.50;;;7.80;99.90;;;;;;5050524;28;20029;-48
2023/05/24 01:44:43;;;;;;;7.70;2.17;;;7.60;99.90;;;;;;5051836;28;20029;-49
2023/05/24 01:47:15;;;;;;;3.10;1.40;;;7.40;99.90;;;;;;5052055;28;20100;-48
2023/05/24 01:49:49;;;;;;;8.83;1.47;;;7.30;99.90;;;;;;5052230;28;20071;-48
2023/05/24 01:52:18;;;;;;;4.57;1.30;;;7.20;99.90;;;;;;5050336;28;20048;-48
2023/05/24 01:54:50;;;;;;;4.63;1.17;;;7.10;99.90;;;;;;5051629;28;20405;-48
2023/05/24 01:57:19;;;;;;;5.00;1.33;;;7.10;99.90;;;;;;5051735;28;20024;-51
2023/05/24 01:59:46;;;;;;;6.95;1.20;;;7.10;99.90;;;;;;5051788;28;20021;-49
2023/05/24 02:02:12;;;;;;;8.53;2.23;;;7.10;99.90;;;;;;5051395;28;20055;-48
2023/05/24 02:04:39;;;;;;;5.37;1.47;;;7.10;99.90;;;;;;5051363;28;20032;-49
2023/05/24 02:07:05;;;;;;;6.50;1.30;;;7.00;99.90;;;;;;5050161;28;20025;-50
2023/05/24 02:09:32;;;;;;;5.27;1.40;;;6.90;99.90;;;;;;5051198;28;20025;-49
2023/05/24 02:11:57;;;;;;;6.50;1.33;;;6.90;99.90;;;;;;5051329;28;20037;-48
2023/05/24 02:14:23;;;;;;;4.87;1.57;;;6.80;99.90;;;;;;5051226;28;20090;-48
2023/05/24 02:16:49;;;;;;;6.87;1.33;;;6.80;99.90;;;;;;5050089;28;20033;-49
2023/05/24 02:19:16;;;;;;;5.93;1.47;;;6.70;99.90;;;;;;5050081;28;20497;-48
2023/05/24 02:21:42;;;;;;;4.73;1.37;;;6.70;99.90;;;;;;5050995;28;20036;-49
2023/05/24 02:24:11;;;;;;;9.20;2.00;;;6.70;99.90;;;;;;5049705;28;20082;-50
2023/05/24 02:26:37;;;;;;;5.67;1.60;;;6.60;99.90;;;;;;5051378;28;20040;-48
2023/05/24 02:29:03;;;;;;;5.50;1.50;;;6.70;99.90;;;;;;5049938;28;20032;-48
2023/05/24 02:31:29;;;;;;;4.73;1.67;;;6.70;99.90;;;;;;5051012;28;20025;-48
2023/05/24 02:33:56;;;;;;;4.10;1.40;;;6.70;99.90;;;;;;5050903;28;20108;-49
2023/05/24 02:36:22;;;;;;;5.53;1.40;;;6.80;99.90;;;;;;5050988;28;20041;-48
2023/05/24 02:38:51;;;;;;;3.87;1.70;;;6.70;99.90;;;;;;5049650;28;20124;-48
2023/05/24 02:41:17;;;;;;;3.72;1.08;;;6.60;99.90;;;;;;5049329;28;20113;-48
2023/05/24 02:43:44;;;;;;;11.13;2.27;;;6.40;99.90;;;;;;5050721;28;20370;-48
2023/05/24 02:46:10;;;;;;;3.90;1.20;;;6.40;99.90;;;;;;5050916;28;20036;-53
2023/05/24 02:48:36;;;;;;;6.03;1.70;;;6.30;99.90;;;;;;5049554;28;20033;-48
2023/05/24 02:51:02;;;;;;;4.80;1.50;;;6.30;99.90;;;;;;5050462;28;20374;-48
2023/05/24 02:53:28;;;;;;;6.17;2.00;;;6.30;99.90;;;;;;5049204;28;20025;-48
2023/05/24 02:55:54;;;;;;;13.53;1.57;;;6.30;99.90;;;;;;5049479;28;20043;-48
2023/05/24 02:58:20;;;;;;;6.27;1.53;;;6.30;99.90;;;;;;5049393;28;20028;-48
2023/05/24 03:00:48;;;;;;;5.40;1.63;;;6.30;99.90;;;;;;5049152;28;20551;-47
2023/05/24 03:03:14;;;;;;;7.97;1.50;;;6.40;99.90;;;;;;5050393;28;20025;-49
2023/05/24 03:05:40;;;;;;;9.23;1.60;;;6.40;99.90;;;;;;5049444;28;20449;-47
2023/05/24 03:08:07;;;;;;;5.63;1.73;;;6.30;99.90;;;;;;5049223;28;20032;-50
2023/05/24 03:10:34;;;;;;;6.57;2.17;;;6.30;99.90;;;;;;5049012;28;20036;-49
2023/05/24 03:13:00;;;;;;;7.23;1.57;;;6.40;99.90;;;;;;5050581;28;20419;-48
2023/05/24 03:15:26;;;;;;;5.00;1.53;;;6.40;99.90;;;;;;5049246;28;20218;-48
2023/05/24 03:17:52;;;;;;;5.93;1.40;;;6.40;99.90;;;;;;5049219;28;20035;-49
2023/05/24 03:20:19;;;;;;;6.67;1.90;;;6.40;99.90;;;;;;5050553;28;20541;-48
2023/05/24 03:22:45;;;;;;;5.07;1.50;;;6.50;99.90;;;;;;5053195;28;20033;-48
2023/05/24 03:25:11;;;;;;;7.07;1.57;;;6.50;99.90;;;;;;5053167;28;20517;-47
2023/05/24 03:27:37;;;;;;;10.20;1.97;;;6.50;99.90;;;;;;5053320;28;20433;-47
2023/05/24 03:30:05;;;;;;;7.30;1.67;;;6.60;99.90;;;;;;5053056;28;20040;-47
2023/05/24 03:32:36;;;;;;;5.00;1.47;;;6.50;99.90;;;;;;5053103;28;20041;-49
2023/05/24 03:35:01;;;;;;;8.47;1.70;;;6.50;99.90;;;;;;5054207;28;20079;-48
2023/05/24 03:37:27;;;;;;;8.67;2.00;;;6.50;99.90;;;;;;5053108;28;20033;-50
2023/05/24 03:39:53;;;;;;;12.07;2.27;;;6.60;99.90;;;;;;5052939;28;20044;-49
2023/05/24 03:42:40;;;;;;;8.37;1.80;;;6.70;99.90;;;;;;5050128;28;20041;-49
2023/05/24 03:45:07;;;;;;;6.77;1.73;;;6.70;99.90;;;;;;5052834;28;20029;-50
2023/05/24 03:47:33;;;;;;;7.07;1.90;;;6.70;99.90;;;;;;5052896;28;20035;-48
2023/05/24 03:49:59;;;;;;;5.87;1.47;;;6.70;99.90;;;;;;5052673;28;20052;-50
2023/05/24 03:52:25;;;;;;;7.10;1.73;;;6.70;99.90;;;;;;5052803;28;20074;-48
2023/05/24 03:54:50;;;;;;;7.73;1.90;;;6.80;99.90;;;;;;5053912;28;20094;-49
2023/05/24 03:57:16;;;;;;;6.33;1.70;;;6.70;99.90;;;;;;5052719;28;20037;-48
2023/05/24 03:59:42;;;;;;;7.70;1.60;;;6.70;99.90;;;;;;5052949;28;20039;-49
2023/05/24 04:02:08;;;;;;;8.30;1.87;;;6.70;99.90;;;;;;5052348;28;20029;-51
2023/05/24 04:04:35;;;;;;;6.77;1.93;;;6.60;99.90;;;;;;5053676;28;20480;-48
2023/05/24 04:07:01;;;;;;;8.23;1.80;;;6.60;99.90;;;;;;5052675;28;20385;-50
2023/05/24 04:09:27;;;;;;;5.63;1.67;;;6.60;99.90;;;;;;5052738;28;20032;-51
2023/05/24 04:11:55;;;;;;;7.50;1.83;;;6.50;99.90;;;;;;5052405;28;20127;-49
2023/05/24 04:14:20;;;;;;;7.47;2.20;;;6.70;99.90;;;;;;5052670;28;20116;-49
2023/05/24 04:16:47;;;;;;;6.73;2.27;;;6.70;99.90;;;;;;5052592;28;20447;-48
2023/05/24 04:19:12;;;;;;;8.37;2.00;;;6.80;99.90;;;;;;5052522;28;20033;-48
2023/05/24 04:21:38;;;;;;;8.13;2.53;;;6.80;99.90;;;;;;5053314;28;20051;-49
2023/05/24 04:24:05;;;;;;;7.10;2.17;;;6.90;99.90;;;;;;5052226;28;20040;-50
2023/05/24 04:26:32;;;;;;;8.00;1.97;;;6.90;99.90;;;;;;5053656;28;20306;-48
2023/05/24 04:28:59;;;;;;;5.90;1.67;;;6.80;99.90;;;;;;5053515;28;20045;-50
2023/05/24 04:31:28;;;;;;;8.37;2.33;;;6.90;99.90;;;;;;5053019;28;20025;-50
2023/05/24 04:33:57;;;;;;;8.40;2.43;;;6.90;99.90;;;;;;5051829;28;20094;-49
2023/05/24 04:36:24;;;;;;;7.23;2.23;;;7.00;99.90;;;;;;5053399;28;20103;-48
2023/05/24 04:38:52;;;;;;;5.63;1.80;;;7.10;99.90;;;;;;5053322;28;20043;-49
2023/05/24 04:41:18;;;;;;;7.27;2.20;;;7.10;99.90;;;;;;5052952;28;20489;-48
2023/05/24 04:43:44;;;;;;;6.87;2.20;;;7.10;99.90;;;;;;5052899;28;20393;-49
2023/05/24 04:46:10;;;;;;;7.53;2.20;;;7.10;99.90;;;;;;5053138;28;20017;-48
2023/05/24 04:48:36;;;;;;;7.83;1.80;;;7.10;99.90;;;;;;5053011;28;20493;-50
2023/05/24 04:51:01;;;;;;;10.20;2.23;;;7.20;99.90;;;;;;5052803;28;20111;-48
2023/05/24 04:53:27;;;;;;;7.23;1.97;;;7.30;99.90;;;;;;5052852;28;20056;-47
2023/05/24 04:55:53;;;;;;;9.83;2.37;;;7.40;99.90;;;;;;5052929;28;20029;-48
2023/05/24 04:58:19;;;;;;;7.83;2.07;;;7.50;99.90;;;;;;5052965;28;20184;-47
2023/05/24 05:00:44;;;;;;;9.37;2.10;;;7.60;99.90;;;;;;5052533;28;20025;-49
2023/05/24 05:03:10;;;;;;;7.83;2.13;;;7.80;99.90;;;;;;5052567;28;20469;-48
2023/05/24 05:05:36;;;;;;;10.87;2.20;;;7.90;99.90;;;;;;5052757;28;20025;-48
2023/05/24 05:08:02;;;;;;;7.77;2.20;;;8.10;99.90;;;;;;5052769;28;20056;-48
2023/05/24 05:10:28;;;;;;;9.27;2.57;;;8.10;99.90;;;;;;5052359;28;20033;-50
2023/05/24 05:12:54;;;;;;;6.67;2.73;;;8.30;99.90;;;;;;5052420;28;20036;-47
2023/05/24 05:15:22;;;;;;;7.07;1.90;;;8.40;99.90;;;;;;5052431;28;20033;-48
2023/05/24 05:17:48;;;;;;;6.53;2.10;;;8.50;99.90;;;;;;5052504;28;20025;-48
2023/05/24 05:20:14;;;;;;;7.10;2.10;;;8.60;99.90;;;;;;5052513;28;20059;-49
2023/05/24 05:22:45;;;;;;;11.50;2.63;;;8.70;99.90;;;;;;5052351;28;20078;-51
2023/05/24 05:25:10;;;;;;;6.40;2.00;;;8.80;99.90;;;;;;5052160;28;20086;-50
2023/05/24 05:27:36;;;;;;;11.47;2.60;;;8.90;99.90;;;;;;5052195;28;20104;-48
2023/05/24 05:30:02;;;;;;;7.67;2.67;;;9.00;99.90;;;;;;5052107;28;20535;-48
2023/05/24 05:32:27;;;;;;;10.20;2.37;;;9.20;99.90;;;;;;5050798;28;20032;-49
2023/05/24 05:34:53;;;;;;;6.63;2.07;;;9.30;99.90;;;;;;5052546;28;20288;-49
2023/05/24 05:37:19;;;;;;;8.43;2.13;;;9.40;99.90;;;;;;5052158;28;20028;-48
2023/05/24 05:39:45;;;;;;;6.10;1.87;;;9.50;99.90;;;;;;5052100;28;20055;-48
2023/05/24 05:42:10;;;;;;;7.20;2.10;;;9.70;99.90;;;;;;5051280;28;20029;-48
2023/05/24 05:44:36;;;;;;;7.20;2.10;;;9.80;99.90;;;;;;5051713;28;20021;-53
2023/05/24 05:47:03;;;;;;;10.70;2.27;;;9.90;99.90;;;;;;5052112;28;20472;-50
2023/05/24 05:49:30;;;;;;;10.17;2.23;;;10.00;99.90;;;;;;5051924;28;20108;-50
2023/05/24 05:51:56;;;;;;;11.07;4.00;;;10.10;99.90;;;;;;5051557;28;20067;-51
2023/05/24 05:54:21;;;;;;;9.00;3.27;;;10.10;99.90;;;;;;5051615;28;20085;-48
2023/05/24 05:56:47;;;;;;;13.27;3.23;;;10.20;99.90;;;;;;5051731;28;20492;-49
2023/05/24 05:59:16;;;;;;;9.50;2.67;;;10.20;99.90;;;;;;5051879;28;20401;-49
2023/05/24 06:01:45;;;;;;;11.02;3.03;;;10.20;99.90;;;;;;5051170;28;20021;-48
2023/05/24 06:04:11;;;;;;;;;;;10.10;99.90;;;;;;5052121;28;20029;-48
2023/05/24 06:06:37;;;;;;;9.50;2.77;;;9.90;99.90;;;;;;5051496;28;19915;-52
2023/05/24 06:09:03;;;;;;;14.17;3.57;;;10.10;99.90;;;;;;5051450;28;20032;-49
2023/05/24 06:11:28;;;;;;;7.30;2.77;;;10.10;99.90;;;;;;5051041;28;20083;-49
2023/05/24 06:13:54;;;;;;;10.27;3.20;;;10.00;99.90;;;;;;5051180;28;20078;-51
2023/05/24 06:16:20;;;;;;;9.47;2.67;;;10.10;99.90;;;;;;5051367;28;20068;-50
2023/05/24 06:18:46;;;;;;;10.87;3.40;;;10.00;99.90;;;;;;5051419;28;20029;-51
2023/05/24 06:21:16;;;;;;;8.90;3.53;;;10.10;99.90;;;;;;5050997;28;20543;-49
2023/05/24 06:23:41;;;;;;;13.00;2.93;;;10.20;99.90;;;;;;5050966;28;20032;-50
2023/05/24 06:26:11;;;;;;;12.27;3.00;;;10.30;99.90;;;;;;5051347;28;20025;-53
2023/05/24 06:28:37;;;;;;;;;;;10.40;99.90;;;;;;5052047;28;20299;-52
2023/05/24 06:31:05;;;;;;;15.57;3.43;;;10.60;99.90;;;;;;5050966;28;19913;-50
2023/05/24 06:33:31;;;;;;;10.27;3.63;;;10.70;99.90;;;;;;5051038;28;20397;-49
2023/05/24 06:35:57;;;;;;;9.43;2.83;;;10.80;99.90;;;;;;5051569;28;20033;-48
2023/05/24 06:38:23;;;;;;;12.33;3.40;;;10.90;99.90;;;;;;5050914;28;20496;-49
2023/05/24 06:40:49;;;;;;;11.27;3.03;;;11.00;99.90;;;;;;5050775;28;20144;-49
2023/05/24 06:43:16;;;;;;;7.70;3.23;;;11.00;99.90;;;;;;5050740;28;20044;-49
2023/05/24 06:45:42;;;;;;;8.40;2.63;;;11.10;99.90;;;;;;5051053;28;20029;-48
2023/05/24 06:48:08;;;;;;;13.30;2.83;;;11.20;99.90;;;;;;5049651;28;20110;-49
2023/05/24 06:50:36;;;;;;;8.17;2.60;;;11.20;99.90;;;;;;5050652;28;20068;-49
2023/05/24 06:53:02;;;;;;;7.13;1.73;;;11.40;99.90;;;;;;5050693;28;20436;-50
2023/05/24 06:55:28;;;;;;;8.13;1.93;;;11.40;99.90;;;;;;5050123;28;20025;-48
2023/05/24 06:57:54;;;;;;;8.33;2.23;;;11.50;99.90;;;;;;5050996;28;20032;-50
2023/05/24 07:00:21;;;;;;;7.00;2.08;;;11.80;99.90;;;;;;5050438;28;20024;-49
2023/05/24 07:02:46;;;;;;;7.82;2.00;;;12.00;99.90;;;;;;5050974;28;20025;-49
2023/05/24 07:05:12;;;;;;;7.43;2.00;;;12.20;99.90;;;;;;5050681;28;20128;-49
2023/05/24 07:07:42;;;;;;;5.88;2.05;;;12.30;99.90;;;;;;5050935;28;20025;-49
2023/05/24 07:10:10;;;;;;;9.85;2.67;;;12.30;99.90;;;;;;5049494;28;20033;-52
2023/05/24 07:12:36;;;;;;;6.53;2.35;;;12.30;99.90;;;;;;5050720;28;20048;-50
2023/05/24 07:15:03;;;;;;;5.00;1.63;;;12.50;99.90;;;;;;5050721;28;20025;-51
2023/05/24 07:17:29;;;;;;;6.18;1.80;;;12.50;99.90;;;;;;5050805;28;20475;-52
2023/05/24 07:19:56;;;;;;;15.90;2.50;;;12.60;99.90;;;;;;5050445;28;20033;-50
2023/05/24 07:22:23;;;;;;;8.80;1.75;;;12.60;99.90;;;;;;5050256;28;20355;-50
2023/05/24 07:24:49;;;;;;;10.00;2.03;;;12.60;99.90;;;;;;5050466;28;20029;-51
2023/05/24 07:27:14;;;;;;;6.90;2.00;;;12.50;99.90;;;;;;5050408;28;20509;-49
2023/05/24 07:29:40;;;;;;;10.70;2.05;;;12.50;99.90;;;;;;5050468;28;20098;-49
2023/05/24 07:32:07;;;;;;;9.80;1.50;;;12.60;99.90;;;;;;5050175;28;20535;-50
2023/05/24 07:34:33;;;;;;;5.95;1.67;;;12.60;99.90;;;;;;5050137;28;20037;-48
2023/05/24 07:37:00;;;;;;;10.50;1.77;;;12.70;99.90;;;;;;5050288;28;20033;-49
2023/05/24 07:39:26;;;;;;;11.10;2.17;;;12.80;99.90;;;;;;5049382;28;20108;-49
2023/05/24 07:41:55;;;;;;;6.88;1.98;;;12.80;99.90;;;;;;5050274;28;20397;-47
2023/05/24 07:44:22;;;;;;;6.70;1.70;;;12.80;99.90;;;;;;5050061;28;20029;-48
2023/05/24 07:46:48;;;;;;;12.65;2.28;;;12.90;99.90;;;;;;5050276;28;20037;-48
2023/05/24 07:49:14;;;;;;;8.60;2.08;;;12.90;99.90;;;;;;5050087;28;20036;-48
2023/05/24 07:51:40;;;;;;;5.78;1.15;;;13.00;99.90;;;;;;5050095;28;20029;-49
2023/05/24 07:54:06;;;;;;;9.27;2.20;;;12.90;99.90;;;;;;5049976;28;20060;-49
2023/05/24 07:56:31;;;;;;;9.23;2.17;;;13.00;99.90;;;;;;5050659;28;20072;-48
2023/05/24 07:59:07;;;;;;;16.88;2.13;;;13.00;99.90;;;;;;5050028;28;20033;-50
2023/05/24 08:01:34;;;;;;;12.85;2.85;;;12.90;99.90;;;;;;5049690;28;20033;-51
2023/05/24 08:04:02;;;;;;;12.93;3.25;;;12.80;99.90;;;;;;5050041;28;20036;-52
2023/05/24 08:06:31;;;;;;;14.43;2.45;;;12.90;99.90;;;;;;5052014;28;20116;-51
2023/05/24 08:08:57;;;;;;;8.18;2.95;;;13.00;99.90;;;;;;5053992;28;20044;-48
2023/05/24 08:11:23;;;;;;;10.80;2.50;;;13.10;99.90;;;;;;5053638;28;20037;-49
2023/05/24 08:13:49;;;;;;;7.13;2.22;;;13.20;99.90;;;;;;5053709;28;20103;-52
2023/05/24 08:16:15;;;;;;;6.50;1.85;;;13.30;99.90;;;;;;5053616;28;20036;-49
2023/05/24 08:18:40;;;;;;;6.35;1.83;;;13.70;99.90;;;;;;5053921;28;20029;-48
2023/05/24 08:21:07;;;;;;;9.30;2.17;;;13.90;99.90;;;;;;5053527;28;20088;-51
2023/05/24 08:23:33;;;;;;;8.73;1.65;;;14.20;99.90;;;;;;5053460;28;20499;-50
2023/05/24 08:25:59;;;;;;;10.88;2.35;;;14.20;99.90;;;;;;5053499;28;20093;-52
2023/05/24 08:28:25;;;;;;;7.75;2.33;;;14.30;99.90;;;;;;5053463;28;20033;-53
2023/05/24 08:30:51;;;;;;;6.30;1.38;;;14.50;99.90;;;;;;5053159;28;20062;-49
2023/05/24 08:33:17;;;;;;;9.20;1.65;;;14.40;99.90;;;;;;5053135;28;20113;-49
2023/05/24 08:35:43;;;;;;;7.07;1.73;;;14.30;99.90;;;;;;5053141;28;20094;-50
2023/05/24 08:38:08;;;;;;;4.45;1.30;;;14.50;99.90;;;;;;5053201;28;20166;-50
2023/05/24 08:40:34;;;;;;;7.22;2.38;;;14.50;99.90;;;;;;5053021;28;20116;-50
2023/05/24 08:43:01;;;;;;;9.52;2.35;;;14.60;99.90;;;;;;5053132;28;20106;-52
2023/05/24 08:45:30;;;;;;;10.57;2.05;;;14.60;99.90;;;;;;5053034;28;20326;-51
2023/05/24 08:47:57;;;;;;;;;;;14.50;99.90;;;;;;5053637;28;20116;-48
2023/05/24 08:50:23;;;;;;;6.32;1.70;;;14.50;99.90;;;;;;5053127;28;19913;-49
2023/05/24 08:52:50;;;;;;;6.88;1.50;;;14.50;99.90;;;;;;5053091;28;20025;-50
2023/05/24 08:55:16;;;;;;;5.35;1.58;;;14.60;99.90;;;;;;5052761;28;20416;-50
2023/05/24 08:57:44;;;;;;;3.63;1.40;;;14.70;99.90;;;;;;5052800;28;20552;-50
2023/05/24 09:00:11;;;;;;;7.35;1.30;;;14.90;99.90;;;;;;5052434;28;20055;-49
2023/05/24 09:02:38;;;;;;;8.07;1.63;;;14.90;99.90;;;;;;5052642;28;20075;-52
2023/05/24 09:05:09;;;;;;;10.65;2.13;;;14.70;99.90;;;;;;5052495;28;20488;-48
2023/05/24 09:07:36;;;;;;;6.75;1.67;;;14.40;99.90;;;;;;5052715;28;20086;-50
2023/05/24 09:10:07;;;;;;;10.10;2.45;;;14.20;99.90;;;;;;5052470;28;20024;-46
2023/05/24 09:12:35;;;;;;;12.30;2.30;;;14.30;99.90;;;;;;5052266;28;20041;-48
2023/05/24 09:15:02;;;;;;;8.13;2.20;;;14.30;99.90;;;;;;5052377;28;20027;-47
2023/05/24 09:17:35;;;;;;;11.82;2.55;;;14.20;99.90;;;;;;5051501;28;20120;-51
2023/05/24 09:20:05;;;;;;;5.65;1.70;;;14.20;99.90;;;;;;5052394;28;20516;-48
2023/05/24 09:22:32;;;;;;;7.97;2.33;;;14.20;99.90;;;;;;5052375;28;20032;-50
2023/05/24 09:25:02;;;;;;;6.65;2.45;;;14.10;99.90;;;;;;5052838;28;20028;-52
2023/05/24 09:27:31;;;;;;;8.02;2.40;;;13.80;99.90;;;;;;5052194;28;20112;-48
2023/05/24 09:29:57;;;;;;;6.78;2.10;;;13.70;99.90;;;;;;5052530;28;20389;-49
2023/05/24 09:32:23;;;;;;;8.43;2.60;;;13.60;99.90;;;;;;5052002;28;20408;-50
2023/05/24 09:34:54;;;;;;;9.82;2.35;;;13.60;99.90;;;;;;5052019;28;20478;-48
2023/05/24 09:37:22;;;;;;;8.43;2.72;;;13.60;99.90;;;;;;5051963;28;20032;-50
2023/05/24 09:39:51;;;;;;;6.63;1.90;;;13.70;99.90;;;;;;5052297;28;20048;-49
2023/05/24 09:42:20;;;;;;;;;;;13.70;99.90;;;;;;5052209;28;20477;-49
2023/05/24 09:45:07;;;;;;;7.37;1.53;;;13.80;99.90;;;;;;5052093;28;19962;-47
2023/05/24 09:47:34;;;;;;;7.22;1.95;;;14.10;99.90;;;;;;5052132;28;20446;-49
2023/05/24 09:50:01;;;;;;;6.38;1.92;;;14.30;99.90;;;;;;5051838;28;20033;-48
2023/05/24 09:52:27;;;;;;;8.55;1.88;;;14.60;99.90;;;;;;5051860;28;20029;-48
2023/05/24 09:54:53;;;;;;;4.20;1.38;;;14.90;99.90;;;;;;5051861;28;20401;-49
2023/05/24 09:57:22;;;;;;;6.90;1.80;;;14.90;99.90;;;;;;5051718;28;20048;-51
2023/05/24 09:59:49;;;;;;;9.32;1.67;;;15.10;99.90;;;;;;5052082;28;20032;-48
2023/05/24 10:02:17;;;;;;;11.00;2.38;;;15.30;99.90;;;;;;5051495;28;20040;-50
2023/05/24 10:04:43;;;;;;;8.35;1.90;;;15.40;99.90;;;;;;5051585;28;20490;-49
2023/05/24 10:07:11;;;;;;;7.45;1.77;;;15.40;99.60;;;;;;5051754;28;20024;-48
2023/05/24 10:09:37;;;;;;;7.45;1.50;;;15.30;99.80;;;;;;5051841;28;20480;-48
2023/05/24 10:12:05;;;;;;;9.00;2.33;;;15.20;99.70;;;;;;5051651;28;20430;-51
2023/05/24 10:14:35;;;;;;;6.95;2.13;;;15.00;99.90;;;;;;5051567;28;20607;-50
2023/05/24 10:17:10;;;;;;;5.20;2.17;;;14.90;99.90;;;;;;5051584;28;20036;-48
2023/05/24 10:19:37;;;;;;;8.00;2.00;;;14.80;99.90;;;;;;5051218;28;20044;-52
2023/05/24 10:22:06;;;;;;;4.38;2.10;;;14.50;99.90;;;;;;5051135;28;20103;-51
2023/05/24 10:24:37;;;;;;;5.75;1.48;;;14.40;99.90;;;;;;5051243;28;20032;-48
2023/05/24 10:27:07;;;;;;;5.38;1.50;;;14.20;99.90;;;;;;5051253;28;20068;-48
2023/05/24 10:30:00;;;;;;;4.68;1.40;;;14.20;99.90;;;;;;5050995;28;20043;-48
2023/05/24 10:32:31;;;;;;;6.45;1.35;;;14.30;99.90;;;;;;5051179;28;20037;-48
2023/05/24 10:34:58;;;;;;;4.30;1.42;;;14.30;99.90;;;;;;5050909;28;20025;-48
2023/05/24 10:37:27;;;;;;;8.63;2.00;;;14.50;99.90;;;;;;5051040;28;20037;-48
2023/05/24 10:39:53;;;;;;;4.95;1.42;;;14.70;99.90;;;;;;5051406;28;20029;-50
2023/05/24 10:42:19;;;;;;;7.82;1.60;;;14.90;99.90;;;;;;5050645;28;20558;-52
2023/05/24 10:44:45;;;;;;;5.38;1.30;;;15.20;99.10;;;;;;5050908;28;20420;-52
2023/05/24 10:47:13;;;;;;;4.82;1.60;;;15.30;99.90;;;;;;5051081;28;20099;-49
2023/05/24 10:49:49;;;;;;;5.20;1.67;;;15.40;98.50;;;;;;5051252;28;20029;-49
2023/05/24 10:52:15;;;;;;;6.57;1.60;;;15.60;97.80;;;;;;5050628;28;20032;-48
2023/05/24 10:55:00;;;;;;;4.03;1.27;;;15.60;97.70;;;;;;5050342;28;20401;-48
2023/05/24 10:57:26;;;;;;;5.97;1.38;;;15.60;98.70;;;;;;5050863;28;20191;-50
2023/05/24 10:59:56;;;;;;;5.68;1.60;;;15.50;98.90;;;;;;5050657;28;20029;-48
2023/05/24 11:02:21;;;;;;;4.20;1.35;;;15.50;98.20;;;;;;5050277;28;20068;-49
2023/05/24 11:04:48;;;;;;;6.15;1.50;;;15.30;99.20;;;;;;5049201;28;20064;-47
2023/05/24 11:07:15;;;;;;;5.50;1.25;;;15.10;98.80;;;;;;5050527;28;20108;-47
2023/05/24 11:09:45;;;;;;;4.80;1.40;;;15.00;98.80;;;;;;5049445;28;20095;-48
2023/05/24 11:12:16;;;;;;;8.63;1.95;;;14.70;98.90;;;;;;5050275;28;20374;-49
2023/05/24 11:14:48;;;;;;;5.72;1.80;;;14.70;99.30;;;;;;5050412;28;20028;-49
2023/05/24 11:17:14;;;;;;;5.00;1.52;;;14.60;99.90;;;;;;5050556;28;20076;-49
2023/05/24 11:19:51;;;;;;;4.40;1.25;;;14.50;99.60;;;;;;5050468;28;20029;-51
2023/05/24 11:22:19;;;;;;;5.53;1.73;;;14.40;99.90;;;;;;5050156;28;20070;-50
2023/05/24 11:24:46;;;;;;;6.25;1.40;;;14.30;99.90;;;;;;5050326;28;20444;-49
2023/05/24 11:27:13;;;;;;;4.63;1.33;;;14.30;99.90;;;;;;5050868;28;20033;-49
2023/05/24 11:29:48;;;;;;;9.73;1.73;;;14.20;99.90;;;;;;5050464;28;20393;-48
2023/05/24 11:32:19;;;;;;;11.10;2.35;;;14.20;99.90;;;;;;5050046;28;20493;-50
2023/05/24 11:34:46;;;;;;;5.68;1.42;;;14.30;99.90;;;;;;5050458;28;20123;-48
2023/05/24 11:37:12;;;;;;;5.82;1.50;;;14.20;99.90;;;;;;5050299;28;20041;-49
2023/05/24 11:39:39;;;;;;;7.15;1.70;;;14.10;99.90;;;;;;5050217;28;20078;-52
2023/05/24 11:42:05;;;;;;;8.52;1.48;;;14.20;99.90;;;;;;5053062;28;20135;-48
2023/05/24 11:44:32;;;;;;;6.60;1.42;;;14.30;99.90;;;;;;5053982;28;20028;-47
2023/05/24 11:46:59;;;;;;;5.60;1.55;;;14.40;99.90;;;;;;5054584;28;20044;-47
2023/05/24 11:49:26;;;;;;;4.85;1.40;;;14.50;99.90;;;;;;5054464;28;20100;-47
2023/05/24 11:51:56;;;;;;;5.18;1.23;;;14.60;99.90;;;;;;5054198;28;20071;-48
2023/05/24 11:54:27;;;;;;;7.50;1.67;;;14.70;99.90;;;;;;5053861;28;20087;-48
2023/05/24 11:56:53;;;;;;;5.32;1.55;;;14.80;99.90;;;;;;5054135;28;20040;-48
2023/05/24 11:59:28;;;;;;;7.35;2.10;;;14.90;99.90;;;;;;5053908;28;20044;-49
2023/05/24 12:02:02;;;;;;;5.40;1.80;;;15.00;99.90;;;;;;5053881;28;20036;-48
2023/05/24 12:04:29;;;;;;;7.28;1.45;;;15.10;99.90;;;;;;5053989;28;20389;-48
2023/05/24 12:06:55;;;;;;;6.85;1.85;;;15.20;99.90;;;;;;5053883;28;20053;-47
2023/05/24 12:09:22;;;;;;;7.80;1.48;;;15.20;99.70;;;;;;5053706;28;20485;-48
2023/05/24 12:11:49;;;;;;;6.38;1.90;;;15.20;99.70;;;;;;5053352;28;20037;-48
2023/05/24 12:14:27;;;;;;;5.25;1.38;;;15.20;99.90;;;;;;5053745;28;20029;-48
2023/05/24 12:16:57;;;;;;;6.50;1.92;;;15.30;99.90;;;;;;5054051;28;20040;-51
2023/05/24 12:19:28;;;;;;;2.72;1.30;;;15.30;99.90;;;;;;5053948;28;20136;-51
2023/05/24 12:21:55;;;;;;;7.90;1.80;;;15.40;99.90;;;;;;5053259;28;20115;-48
2023/05/24 12:24:23;;;;;;;5.88;1.60;;;15.50;99.90;;;;;;5053351;28;20036;-53
2023/05/24 12:26:49;;;;;;;5.15;1.65;;;15.60;99.90;;;;;;5053727;28;20040;-51
2023/05/24 12:29:16;;;;;;;5.88;1.67;;;15.70;99.80;;;;;;5053725;28;20048;-48
2023/05/24 12:31:47;;;;;;;5.45;1.88;;;15.70;99.90;;;;;;5053299;28;20318;-48
2023/05/24 12:34:15;;;;;;;8.32;2.00;;;15.70;99.60;;;;;;5053378;28;20040;-48
2023/05/24 12:36:42;;;;;;;8.68;1.80;;;15.80;99.60;;;;;;5053183;28;20029;-49
2023/05/24 12:39:32;;;;;;;4.32;1.67;;;15.80;99.90;;;;;;5053409;28;20565;-49
2023/05/24 12:42:00;;;;;;;5.55;1.92;;;15.90;99.10;;;;;;5053096;28;20032;-50
2023/05/24 12:44:31;;;;;;;6.82;1.70;;;15.90;99.70;;;;;;5053393;28;20116;-48
2023/05/24 12:46:57;;;;;;;6.57;1.55;;;16.00;99.20;;;;;;5053352;28;20033;-50
2023/05/24 12:49:24;;;;;;;8.63;1.77;;;15.90;98.20;;;;;;5053431;28;20056;-48
2023/05/24 12:51:51;;;;;;;5.30;1.50;;;15.80;98.90;;;;;;5052190;28;20052;-50
2023/05/24 12:54:18;;;;;;;4.68;1.77;;;16.00;99.60;;;;;;5052358;28;20116;-50